createdAt,value
2022-08-31T00:01:21.005Z,26.00
2022-08-31T00:04:20.003Z,26.00
2022-08-31T00:06:46.670Z,25.80
2022-08-31T00:09:20.401Z,25.80
2022-08-31T00:11:47.041Z,25.80
2022-08-31T00:14:13.668Z,25.80
2022-08-31T00:16:40.584Z,25.70
2022-08-31T00:19:07.269Z,25.60
2022-08-31T00:21:35.068Z,25.60
2022-08-31T00:24:01.734Z,25.60
2022-08-31T00:26:28.318Z,25.60
2022-08-31T00:28:54.971Z,25.50
2022-08-31T00:31:21.604Z,25.50
2022-08-31T00:33:52.353Z,25.50
2022-08-31T00:36:20.038Z,25.50
2022-08-31T00:38:49.789Z,25.40
2022-08-31T00:41:17.047Z,25.40
2022-08-31T00:43:43.614Z,25.40
2022-08-31T00:46:10.935Z,25.40
2022-08-31T00:48:38.697Z,25.40
2022-08-31T00:51:05.363Z,25.40
2022-08-31T00:53:31.970Z,25.30
2022-08-31T00:55:58.648Z,25.40
2022-08-31T00:58:25.286Z,25.50
2022-08-31T01:00:51.989Z,25.70
2022-08-31T01:03:18.691Z,25.80
2022-08-31T01:05:45.488Z,25.90
2022-08-31T01:08:13.492Z,26.00
2022-08-31T01:10:40.413Z,26.10
2022-08-31T01:13:07.030Z,26.10
2022-08-31T01:15:33.630Z,26.10
2022-08-31T01:18:00.605Z,25.90
2022-08-31T01:20:48.821Z,25.80
2022-08-31T01:23:17.278Z,25.90
2022-08-31T01:25:44.454Z,25.80
2022-08-31T01:28:11.237Z,25.80
2022-08-31T01:30:37.890Z,25.70
2022-08-31T01:33:04.500Z,25.70
2022-08-31T01:35:31.149Z,25.70
2022-08-31T01:37:57.852Z,25.60
2022-08-31T01:40:34.425Z,25.60
2022-08-31T01:43:01.033Z,25.50
2022-08-31T01:45:27.655Z,25.50
2022-08-31T01:47:54.271Z,25.50
2022-08-31T01:50:20.896Z,25.40
2022-08-31T01:52:47.487Z,25.50
2022-08-31T01:55:14.142Z,25.60
2022-08-31T01:57:40.727Z,25.40
2022-08-31T02:00:08.517Z,25.40
2022-08-31T02:02:35.311Z,25.40
2022-08-31T02:05:02.025Z,25.40
2022-08-31T02:07:28.648Z,25.40
2022-08-31T02:09:55.243Z,25.40
2022-08-31T02:12:21.886Z,25.50
2022-08-31T02:14:48.508Z,25.70
2022-08-31T02:17:15.101Z,25.80
2022-08-31T02:19:41.689Z,25.80
2022-08-31T02:22:08.279Z,26.10
2022-08-31T02:24:34.917Z,26.00
2022-08-31T02:27:01.537Z,26.00
2022-08-31T02:29:28.120Z,26.20
2022-08-31T02:31:54.781Z,26.00
2022-08-31T02:34:21.367Z,25.90
2022-08-31T02:36:48.175Z,25.90
2022-08-31T02:39:15.057Z,25.90
2022-08-31T02:41:41.889Z,26.10
2022-08-31T02:44:10.590Z,25.80
2022-08-31T02:46:37.283Z,25.70
2022-08-31T02:49:03.940Z,25.70
2022-08-31T02:51:30.566Z,25.60
2022-08-31T02:53:57.240Z,25.40
2022-08-31T02:56:23.925Z,25.60
2022-08-31T02:58:54.944Z,25.60
2022-08-31T03:01:22.542Z,25.50
2022-08-31T03:03:49.644Z,25.50
2022-08-31T03:06:16.432Z,25.80
2022-08-31T03:08:43.020Z,25.50
2022-08-31T03:11:09.634Z,25.50
2022-08-31T03:13:37.593Z,25.40
2022-08-31T03:16:04.655Z,25.40
2022-08-31T03:18:31.349Z,25.40
2022-08-31T03:20:57.979Z,25.30
2022-08-31T03:23:24.615Z,25.50
2022-08-31T03:25:51.216Z,25.40
2022-08-31T03:28:17.840Z,25.40
2022-08-31T03:30:45.121Z,25.60
2022-08-31T03:33:11.814Z,25.60
2022-08-31T03:35:38.475Z,25.70
2022-08-31T03:38:05.462Z,25.60
2022-08-31T03:40:32.164Z,25.40
2022-08-31T03:42:58.929Z,25.20
2022-08-31T03:45:26.509Z,25.20
2022-08-31T03:47:53.269Z,24.70
2022-08-31T03:50:19.893Z,24.30
2022-08-31T03:52:46.480Z,24.30
2022-08-31T03:55:13.125Z,24.00
2022-08-31T03:57:39.803Z,24.00
2022-08-31T04:00:06.890Z,23.90
2022-08-31T04:02:37.512Z,23.80
2022-08-31T04:05:04.479Z,23.70
2022-08-31T04:07:38.420Z,23.60
2022-08-31T04:10:10.367Z,23.90
2022-08-31T04:12:36.974Z,23.60
2022-08-31T04:15:04.017Z,23.50
2022-08-31T04:17:30.740Z,23.50
2022-08-31T04:19:57.401Z,23.40
2022-08-31T04:22:25.060Z,23.40
2022-08-31T04:24:51.660Z,23.40
2022-08-31T04:27:18.277Z,23.30
2022-08-31T04:29:44.866Z,23.30
2022-08-31T04:32:11.480Z,23.30
2022-08-31T04:34:38.078Z,23.20
2022-08-31T04:37:04.816Z,23.20
2022-08-31T04:39:33.880Z,23.10
2022-08-31T04:42:00.767Z,23.10
2022-08-31T04:44:27.638Z,23.30
2022-08-31T04:46:55.172Z,23.10
2022-08-31T04:49:22.027Z,23.10
2022-08-31T04:51:48.647Z,23.10
2022-08-31T04:54:15.310Z,23.20
2022-08-31T04:56:43.204Z,23.70
2022-08-31T04:59:11.308Z,23.40
2022-08-31T05:01:43.467Z,22.90
2022-08-31T05:04:10.433Z,23.00
2022-08-31T05:06:37.438Z,23.00
2022-08-31T05:09:05.110Z,23.10
2022-08-31T05:11:31.945Z,23.20
2022-08-31T05:13:58.873Z,23.30
2022-08-31T05:16:25.509Z,23.40
2022-08-31T05:18:52.141Z,23.60
2022-08-31T05:21:28.484Z,23.80
2022-08-31T05:23:55.695Z,23.70
2022-08-31T05:26:26.892Z,23.80
2022-08-31T05:28:53.716Z,23.80
2022-08-31T05:31:21.455Z,23.90
2022-08-31T05:33:48.168Z,24.00
2022-08-31T05:36:14.959Z,24.10
2022-08-31T05:38:41.827Z,24.30
2022-08-31T05:41:08.506Z,24.50
2022-08-31T05:43:35.167Z,24.70
2022-08-31T05:46:05.536Z,24.60
2022-08-31T05:48:36.398Z,25.00
2022-08-31T05:51:03.977Z,25.10
2022-08-31T05:53:31.211Z,25.30
2022-08-31T05:55:58.857Z,25.30
2022-08-31T05:58:25.474Z,25.30
2022-08-31T06:00:52.149Z,25.20
2022-08-31T06:03:18.965Z,25.20
2022-08-31T06:05:45.835Z,25.50
2022-08-31T06:08:15.330Z,25.10
2022-08-31T06:10:42.118Z,25.10
2022-08-31T06:13:09.301Z,24.80
2022-08-31T06:15:35.913Z,24.90
2022-08-31T06:18:12.004Z,24.90
2022-08-31T06:20:39.348Z,24.90
2022-08-31T06:23:06.234Z,24.80
2022-08-31T06:25:33.183Z,24.80
2022-08-31T06:27:59.784Z,24.80
2022-08-31T06:30:27.625Z,24.80
2022-08-31T06:32:58.461Z,24.80
2022-08-31T06:35:25.576Z,24.70
2022-08-31T06:37:53.103Z,24.80
2022-08-31T06:40:19.874Z,24.80
2022-08-31T06:42:46.509Z,24.70
2022-08-31T06:45:13.158Z,24.70
2022-08-31T06:47:39.871Z,24.70
2022-08-31T06:50:06.697Z,24.70
2022-08-31T06:52:38.258Z,24.70
2022-08-31T06:55:06.111Z,24.70
2022-08-31T06:57:32.947Z,24.70
2022-08-31T07:00:02.293Z,24.60
2022-08-31T07:02:30.697Z,24.70
2022-08-31T07:04:57.365Z,24.80
2022-08-31T07:07:23.977Z,24.90
2022-08-31T07:09:50.659Z,25.10
2022-08-31T07:12:17.269Z,25.30
2022-08-31T07:14:54.483Z,25.40
2022-08-31T07:17:22.046Z,25.60
2022-08-31T07:19:48.668Z,25.60
2022-08-31T07:22:15.718Z,25.70
2022-08-31T07:24:42.440Z,25.60
2022-08-31T07:27:10.141Z,25.60
2022-08-31T07:29:40.431Z,25.50
2022-08-31T07:32:08.162Z,25.50
2022-08-31T07:34:36.193Z,25.40
2022-08-31T07:37:21.553Z,25.30
2022-08-31T07:40:08.082Z,25.30
2022-08-31T07:42:38.708Z,25.30
2022-08-31T07:45:06.018Z,25.20
2022-08-31T07:47:35.927Z,25.20
2022-08-31T07:50:02.543Z,25.10
2022-08-31T07:52:32.367Z,25.20
2022-08-31T07:55:07.845Z,25.10
2022-08-31T07:57:44.040Z,25.10
2022-08-31T08:00:10.869Z,25.00
2022-08-31T08:02:40.573Z,25.00
2022-08-31T08:05:11.036Z,25.00
2022-08-31T08:07:38.117Z,25.00
2022-08-31T08:10:06.500Z,25.00
2022-08-31T08:12:36.302Z,25.00
2022-08-31T08:15:06.921Z,25.00
2022-08-31T08:17:33.543Z,25.00
2022-08-31T08:20:00.172Z,24.90
2022-08-31T08:22:50.950Z,24.90
2022-08-31T08:25:13.532Z,24.90
2022-08-31T08:27:43.263Z,25.30
2022-08-31T08:30:13.142Z,25.00
2022-08-31T08:32:42.817Z,25.20
2022-08-31T08:35:10.109Z,25.30
2022-08-31T08:37:57.405Z,25.40
2022-08-31T08:40:46.163Z,25.60
2022-08-31T08:43:16.185Z,25.80
2022-08-31T08:45:43.593Z,25.80
2022-08-31T08:48:11.275Z,25.80
2022-08-31T08:50:38.823Z,25.80
2022-08-31T08:53:06.267Z,25.80
2022-08-31T08:55:37.644Z,25.70
2022-08-31T08:58:05.919Z,25.60
2022-08-31T09:00:33.345Z,25.50
2022-08-31T09:03:20.582Z,25.50
2022-08-31T09:05:53.291Z,25.40
2022-08-31T09:08:41.584Z,25.40
2022-08-31T09:11:17.668Z,25.30
2022-08-31T09:13:49.120Z,25.30
2022-08-31T09:16:40.963Z,25.30
2022-08-31T09:19:08.765Z,25.30
2022-08-31T09:21:37.266Z,25.20
2022-08-31T09:24:03.913Z,25.20
2022-08-31T09:26:32.769Z,25.20
2022-08-31T09:29:03.805Z,25.20
2022-08-31T09:31:37.284Z,25.10
2022-08-31T09:34:08.557Z,25.10
2022-08-31T09:36:41.243Z,25.10
2022-08-31T09:39:19.051Z,25.10
2022-08-31T09:41:46.127Z,25.10
2022-08-31T09:44:32.281Z,25.10
2022-08-31T09:47:01.475Z,25.10
2022-08-31T09:49:33.594Z,25.20
2022-08-31T09:52:15.733Z,25.30
2022-08-31T09:55:01.284Z,25.40
2022-08-31T09:57:54.003Z,25.60
2022-08-31T10:00:33.215Z,25.70
2022-08-31T10:03:19.763Z,25.90
2022-08-31T10:05:46.809Z,25.90
2022-08-31T10:08:19.504Z,26.00
2022-08-31T10:10:47.116Z,25.80
2022-08-31T10:13:13.680Z,25.80
2022-08-31T10:15:42.803Z,25.90
2022-08-31T10:18:17.649Z,25.70
2022-08-31T10:20:48.463Z,25.70
2022-08-31T10:23:15.159Z,25.60
2022-08-31T10:25:46.087Z,25.60
2022-08-31T10:28:14.772Z,25.50
2022-08-31T10:30:50.555Z,25.40
2022-08-31T10:33:18.300Z,25.40
2022-08-31T10:35:55.163Z,25.40
2022-08-31T10:38:26.732Z,25.40
2022-08-31T10:41:01.946Z,25.30
2022-08-31T10:43:31.760Z,25.30
2022-08-31T10:45:59.690Z,25.30
2022-08-31T10:48:26.422Z,25.20
2022-08-31T10:50:53.361Z,25.30
2022-08-31T10:53:22.975Z,25.30
2022-08-31T10:55:58.560Z,25.40
2022-08-31T10:58:28.281Z,25.50
2022-08-31T11:01:04.142Z,25.60
2022-08-31T11:03:49.590Z,25.80
2022-08-31T11:06:19.230Z,25.90
2022-08-31T11:09:01.238Z,26.00
2022-08-31T11:11:31.127Z,26.00
2022-08-31T11:14:00.252Z,26.00
2022-08-31T11:16:27.064Z,25.90
2022-08-31T11:19:09.413Z,25.90
2022-08-31T11:21:42.867Z,25.80
2022-08-31T11:24:28.458Z,25.80
2022-08-31T11:26:57.707Z,25.70
2022-08-31T11:29:30.477Z,25.60
2022-08-31T11:31:58.289Z,25.60
2022-08-31T11:34:26.515Z,25.60
2022-08-31T11:36:54.973Z,25.60
2022-08-31T11:39:27.139Z,25.40
2022-08-31T11:41:54.031Z,25.50
2022-08-31T11:44:34.218Z,25.60
2022-08-31T11:47:01.199Z,25.40
2022-08-31T11:49:36.189Z,25.40
2022-08-31T11:52:05.878Z,25.40
2022-08-31T11:54:41.563Z,25.40
2022-08-31T11:57:15.462Z,25.40
2022-08-31T11:59:46.171Z,25.50
2022-08-31T12:02:19.103Z,25.40
2022-08-31T12:04:48.465Z,25.80
2022-08-31T12:07:15.551Z,25.90
2022-08-31T12:09:57.566Z,26.00
2022-08-31T12:12:30.229Z,26.10
2022-08-31T12:15:15.820Z,26.10
2022-08-31T12:18:08.723Z,26.10
2022-08-31T12:21:07.313Z,26.10
2022-08-31T12:23:39.577Z,26.00
2022-08-31T12:26:12.623Z,26.00
2022-08-31T12:28:58.062Z,25.90
2022-08-31T12:31:24.750Z,25.80
2022-08-31T12:33:54.380Z,25.70
2022-08-31T12:36:24.806Z,25.70
2022-08-31T12:39:10.958Z,25.60
2022-08-31T12:41:43.262Z,25.60
2022-08-31T12:44:14.104Z,25.60
2022-08-31T12:46:41.134Z,25.60
2022-08-31T12:49:22.866Z,25.50
2022-08-31T12:51:50.185Z,25.40
2022-08-31T12:54:37.101Z,25.40
2022-08-31T12:57:26.966Z,25.40
2022-08-31T13:00:07.235Z,25.40
2022-08-31T13:02:35.763Z,25.50
2022-08-31T13:05:02.638Z,25.60
2022-08-31T13:07:33.161Z,25.70
2022-08-31T13:10:05.996Z,25.80
2022-08-31T13:12:32.626Z,25.90
2022-08-31T13:14:59.232Z,26.10
2022-08-31T13:17:25.849Z,26.10
2022-08-31T13:19:53.296Z,26.10
2022-08-31T13:22:33.356Z,26.10
2022-08-31T13:25:31.814Z,26.10
2022-08-31T13:27:58.453Z,26.10
2022-08-31T13:30:25.904Z,26.00
2022-08-31T13:32:54.685Z,25.90
2022-08-31T13:35:22.239Z,25.90
2022-08-31T13:37:53.975Z,25.70
2022-08-31T13:40:23.802Z,25.80
2022-08-31T13:42:55.540Z,25.70
2022-08-31T13:45:31.049Z,25.70
2022-08-31T13:47:59.347Z,25.60
2022-08-31T13:50:52.711Z,25.60
2022-08-31T13:53:39.854Z,25.60
2022-08-31T13:56:39.842Z,25.50
2022-08-31T13:59:24.962Z,25.50
2022-08-31T14:02:11.984Z,25.40
2022-08-31T14:05:00.260Z,25.40
2022-08-31T14:07:39.006Z,25.40
2022-08-31T14:10:26.503Z,25.50
2022-08-31T14:12:57.074Z,25.60
2022-08-31T14:15:38.836Z,25.80
2022-08-31T14:18:27.336Z,25.90
2022-08-31T14:21:23.768Z,26.00
2022-08-31T14:23:54.073Z,26.10
2022-08-31T14:26:22.876Z,26.10
2022-08-31T14:28:53.325Z,26.10
2022-08-31T14:31:42.919Z,26.10
2022-08-31T14:34:11.790Z,26.00
2022-08-31T14:36:46.040Z,25.90
2022-08-31T14:39:12.641Z,25.90
2022-08-31T14:41:39.279Z,25.70
2022-08-31T14:44:09.477Z,25.90
2022-08-31T14:46:37.059Z,25.70
2022-08-31T14:49:07.195Z,25.60
2022-08-31T14:51:43.410Z,25.60
2022-08-31T14:54:10.287Z,25.60
2022-08-31T14:56:45.363Z,25.60
2022-08-31T14:59:16.005Z,25.60
2022-08-31T15:01:49.184Z,25.60
2022-08-31T15:04:17.249Z,25.50
2022-08-31T15:06:47.211Z,25.50
2022-08-31T15:09:13.951Z,25.80
2022-08-31T15:11:41.064Z,25.90
2022-08-31T15:14:12.440Z,25.90
2022-08-31T15:16:43.600Z,26.10
2022-08-31T15:19:13.112Z,26.20
2022-08-31T15:21:52.168Z,26.30
2022-08-31T15:27:51.678Z,26.20
2022-08-31T15:30:19.020Z,26.20
2022-08-31T15:32:48.012Z,26.10
2022-08-31T15:35:17.842Z,26.10
2022-08-31T15:37:56.565Z,26.10
2022-08-31T15:40:23.566Z,26.00
2022-08-31T15:42:50.949Z,25.90
2022-08-31T15:45:17.619Z,25.80
2022-08-31T15:48:15.299Z,25.80
2022-08-31T15:50:52.699Z,25.80
2022-08-31T15:53:21.655Z,25.70
2022-08-31T15:55:49.102Z,25.60
2022-08-31T15:58:16.274Z,25.90
2022-08-31T16:00:43.026Z,25.60
2022-08-31T16:03:09.849Z,25.50
2022-08-31T16:05:39.887Z,25.40
2022-08-31T16:08:10.275Z,25.40
2022-08-31T16:10:40.021Z,25.50
2022-08-31T16:13:09.479Z,25.60
2022-08-31T16:15:36.839Z,25.80
2022-08-31T16:18:05.140Z,25.90
2022-08-31T16:20:32.537Z,25.90
2022-08-31T16:23:00.666Z,26.00
2022-08-31T16:25:47.293Z,26.10
2022-08-31T16:28:15.746Z,26.00
2022-08-31T16:30:43.970Z,26.00
2022-08-31T16:33:12.076Z,26.00
2022-08-31T16:35:39.176Z,25.90
2022-08-31T16:38:07.158Z,25.80
2022-08-31T16:40:34.268Z,26.00
2022-08-31T16:43:01.632Z,25.70
2022-08-31T16:45:28.379Z,25.80
2022-08-31T16:48:15.134Z,25.70
2022-08-31T16:50:47.672Z,25.60
2022-08-31T16:53:18.025Z,25.50
2022-08-31T16:55:45.487Z,25.60
2022-08-31T16:58:29.634Z,25.50
2022-08-31T17:01:02.354Z,25.50
2022-08-31T17:03:29.032Z,25.40
2022-08-31T17:05:57.032Z,25.30
2022-08-31T17:08:23.949Z,25.30
2022-08-31T17:10:51.347Z,25.40
2022-08-31T17:13:17.992Z,25.60
2022-08-31T17:15:44.747Z,25.70
2022-08-31T17:18:11.439Z,25.80
2022-08-31T17:20:40.173Z,25.80
2022-08-31T17:23:06.890Z,26.00
2022-08-31T17:25:35.791Z,25.80
2022-08-31T17:28:07.515Z,26.20
2022-08-31T17:30:34.532Z,25.90
2022-08-31T17:33:01.576Z,26.00
2022-08-31T17:35:29.131Z,25.90
2022-08-31T17:37:56.533Z,25.80
2022-08-31T17:40:23.269Z,25.80
2022-08-31T17:42:52.013Z,25.70
2022-08-31T17:45:19.145Z,25.70
2022-08-31T17:47:45.864Z,25.60
2022-08-31T17:50:14.079Z,25.50
2022-08-31T17:52:40.908Z,25.60
2022-08-31T17:55:13.058Z,25.50
2022-08-31T17:57:41.715Z,25.50
2022-08-31T18:00:14.577Z,25.40
2022-08-31T18:02:41.308Z,25.40
2022-08-31T18:05:09.482Z,25.40
2022-08-31T18:07:38.710Z,25.40
2022-08-31T18:10:10.877Z,25.80
2022-08-31T18:12:41.238Z,25.70
2022-08-31T18:15:10.457Z,25.80
2022-08-31T18:17:37.216Z,26.00
2022-08-31T18:20:22.397Z,26.10
2022-08-31T18:22:52.443Z,26.10
2022-08-31T18:25:19.351Z,26.10
2022-08-31T18:27:48.519Z,26.10
2022-08-31T18:30:15.660Z,26.00
2022-08-31T18:32:47.287Z,26.00
2022-08-31T18:35:16.476Z,25.90
2022-08-31T18:37:43.216Z,26.00
2022-08-31T18:40:28.817Z,26.00
2022-08-31T18:43:14.266Z,25.70
2022-08-31T18:45:40.923Z,25.70
2022-08-31T18:48:24.310Z,25.60
2022-08-31T18:50:51.749Z,25.50
2022-08-31T18:53:29.254Z,25.50
2022-08-31T18:56:05.104Z,25.50
2022-08-31T18:58:31.789Z,25.50
2022-08-31T19:01:01.569Z,25.40
2022-08-31T19:03:28.442Z,25.40
2022-08-31T19:05:56.827Z,25.30
2022-08-31T19:08:24.034Z,25.40
2022-08-31T19:10:51.392Z,25.30
2022-08-31T19:13:18.198Z,25.40
2022-08-31T19:15:45.760Z,25.30
2022-08-31T19:18:13.963Z,25.30
2022-08-31T19:20:40.823Z,25.30
2022-08-31T19:23:08.312Z,25.40
2022-08-31T19:25:42.250Z,25.40
2022-08-31T19:28:08.983Z,25.50
2022-08-31T19:30:36.425Z,25.80
2022-08-31T19:33:07.537Z,25.80
2022-08-31T19:35:36.134Z,25.80
2022-08-31T19:38:03.065Z,25.80
2022-08-31T19:40:38.140Z,25.90
2022-08-31T19:45:53.623Z,25.80
2022-08-31T19:48:24.155Z,25.70
2022-08-31T19:50:53.471Z,25.60
2022-08-31T19:53:21.723Z,25.60
2022-08-31T19:55:50.800Z,25.50
2022-08-31T19:58:18.051Z,25.50
2022-08-31T20:00:44.888Z,25.40
2022-08-31T20:03:15.466Z,25.40
2022-08-31T20:05:43.691Z,25.40
2022-08-31T20:08:10.730Z,25.30
2022-08-31T20:10:46.142Z,25.20
2022-08-31T20:13:14.436Z,25.20
2022-08-31T20:15:43.649Z,25.20
2022-08-31T20:18:11.886Z,25.20
2022-08-31T20:20:48.413Z,25.20
2022-08-31T20:23:16.673Z,25.20
2022-08-31T20:25:47.370Z,25.10
2022-08-31T20:28:16.115Z,25.20
2022-08-31T20:30:43.860Z,25.10
2022-08-31T20:33:11.851Z,25.10
2022-08-31T20:35:47.632Z,25.10
2022-08-31T20:38:15.282Z,24.90
2022-08-31T20:40:43.403Z,25.00
2022-08-31T20:43:13.591Z,25.00
2022-08-31T20:45:40.762Z,25.00
2022-08-31T20:48:27.218Z,25.10
2022-08-31T20:50:56.034Z,25.30
2022-08-31T20:53:42.479Z,25.40
2022-08-31T20:56:16.919Z,25.50
2022-08-31T20:58:45.032Z,25.60
2022-08-31T21:01:14.127Z,25.60
2022-08-31T21:03:42.130Z,25.70
2022-08-31T21:06:11.333Z,25.70
2022-08-31T21:08:38.812Z,25.60
2022-08-31T21:11:12.625Z,25.60
2022-08-31T21:13:39.352Z,25.50
2022-08-31T21:16:06.053Z,25.40
2022-08-31T21:18:34.819Z,25.40
2022-08-31T21:21:06.615Z,25.40
2022-08-31T21:23:34.933Z,25.30
2022-08-31T21:26:01.602Z,25.20
2022-08-31T21:28:28.176Z,25.30
2022-08-31T21:31:07.194Z,25.20
2022-08-31T21:33:43.537Z,25.20
2022-08-31T21:36:10.943Z,25.20
2022-08-31T21:38:37.874Z,25.10
2022-08-31T21:41:04.975Z,25.10
2022-08-31T21:43:32.566Z,25.00
2022-08-31T21:45:59.866Z,25.00
2022-08-31T21:48:26.566Z,25.00
2022-08-31T21:50:53.244Z,24.90
2022-08-31T21:53:19.987Z,24.90
2022-08-31T21:55:46.740Z,24.90
2022-08-31T21:58:13.712Z,24.90
2022-08-31T22:00:42.165Z,24.90
2022-08-31T22:03:08.873Z,24.90
2022-08-31T22:05:39.662Z,24.90
2022-08-31T22:08:06.288Z,24.80
2022-08-31T22:10:40.883Z,24.80
2022-08-31T22:13:08.777Z,24.90
2022-08-31T22:15:36.698Z,25.00
2022-08-31T22:18:46.109Z,25.20
2022-08-31T22:20:53.123Z,25.20
2022-08-31T22:23:19.897Z,25.40
2022-08-31T22:25:46.577Z,25.50
2022-08-31T22:28:14.628Z,25.50
2022-08-31T22:30:42.707Z,25.50
2022-08-31T22:33:09.392Z,25.40
2022-08-31T22:35:39.437Z,25.40
2022-08-31T22:38:09.049Z,25.30
2022-08-31T22:40:37.051Z,25.20
2022-08-31T22:43:05.668Z,25.20
2022-08-31T22:45:32.510Z,25.20
2022-08-31T22:47:59.117Z,25.10
2022-08-31T22:50:25.799Z,25.00
2022-08-31T22:52:52.410Z,25.00
2022-08-31T22:55:19.007Z,24.90
2022-08-31T22:57:45.624Z,25.20
2022-08-31T23:00:12.410Z,24.90
2022-08-31T23:02:44.837Z,24.90
2022-08-31T23:05:12.654Z,24.80
2022-08-31T23:07:39.514Z,24.80
2022-08-31T23:10:06.566Z,24.80
2022-08-31T23:12:35.216Z,24.70
2022-08-31T23:15:02.658Z,24.70
2022-08-31T23:17:29.253Z,24.70
2022-08-31T23:19:55.852Z,24.70
2022-08-31T23:22:24.517Z,24.70
2022-08-31T23:24:51.758Z,24.60
2022-08-31T23:27:19.328Z,24.70
2022-08-31T23:29:47.797Z,24.60
2022-08-31T23:32:16.557Z,24.60
2022-08-31T23:34:43.185Z,24.60
2022-08-31T23:37:10.353Z,24.60
2022-08-31T23:39:37.786Z,24.40
2022-08-31T23:42:04.654Z,25.20
2022-08-31T23:44:31.258Z,24.90
2022-08-31T23:46:58.664Z,25.20
2022-08-31T23:49:25.264Z,24.90
2022-08-31T23:51:51.861Z,25.30
2022-08-31T23:54:18.464Z,25.40
2022-08-31T23:56:46.767Z,25.40
2022-08-31T23:59:15.459Z,25.40
